Time;durP1;ratioP1;P1;durP2;ratioP2;P2;SDS_P1;SDS_P2;PMS_P1;PMS_P2;Temp;Humidity;BMP_temperature;BMP_pressure;BME280_temperature;BME280_humidity;BME280_pressure;Samples;Min_cycle;Max_cycle;Signal;HPM_P1;HPM_P2
2022/10/04 00:01:47;;;;;;;;;;;21.40;43.50;;;;;;485742;245;1201;-54
2022/10/04 00:03:49;;;;;;;;;;;21.40;43.40;;;;;;485145;245;1375;-53
2022/10/04 00:05:50;;;;;;;;;;;21.30;43.40;;;;;;485429;245;1308;-54
2022/10/04 00:07:51;;;;;;;;;;;21.30;43.30;;;;;;485435;245;2156;-53
2022/10/04 00:09:53;;;;;;;;;;;21.40;43.30;;;;;;485276;245;1209;-53
2022/10/04 00:11:54;;;;;;;;;;;21.30;43.20;;;;;;485743;245;1226;-54
2022/10/04 00:13:55;;;;;;;;;;;21.40;43.30;;;;;;485353;245;1230;-54
2022/10/04 00:15:57;;;;;;;;;;;21.40;43.20;;;;;;485624;245;1312;-54
2022/10/04 00:17:58;;;;;;;;;;;21.30;43.10;;;;;;485741;245;1334;-53
2022/10/04 00:19:59;;;;;;;;;;;21.40;43.20;;;;;;485465;245;1366;-53
2022/10/04 00:22:01;;;;;;;;;;;21.30;43.00;;;;;;485463;245;1253;-53
2022/10/04 00:24:02;;;;;;;;;;;21.40;43.10;;;;;;485756;245;1300;-53
2022/10/04 00:26:03;;;;;;;;;;;21.40;43.00;;;;;;485446;245;1354;-54
2022/10/04 00:28:04;;;;;;;;;;;21.40;43.00;;;;;;485424;245;2163;-54
2022/10/04 00:30:06;;;;;;;;;;;21.40;42.90;;;;;;485476;245;1231;-54
2022/10/04 00:32:07;;;;;;;;;;;21.40;42.90;;;;;;485683;245;1238;-53
2022/10/04 00:34:09;;;;;;;;;;;21.40;42.90;;;;;;485317;245;1376;-54
2022/10/04 00:36:10;;;;;;;;;;;21.40;42.90;;;;;;485424;245;1286;-53
2022/10/04 00:38:11;;;;;;;;;;;21.40;42.80;;;;;;485555;245;1226;-53
2022/10/04 00:40:13;;;;;;;;;;;21.40;42.80;;;;;;485275;245;1265;-54
2022/10/04 00:42:14;;;;;;;;;;;21.40;42.80;;;;;;485750;245;1238;-54
2022/10/04 00:44:16;;;;;;;;;;;21.40;42.90;;;;;;485725;245;1260;-54
2022/10/04 00:46:17;;;;;;;;;;;21.30;42.80;;;;;;485770;245;1251;-54
2022/10/04 00:48:18;;;;;;;;;;;21.40;42.80;;;;;;485757;245;2189;-53
2022/10/04 00:50:20;;;;;;;;;;;21.40;42.80;;;;;;485289;245;1088;-54
2022/10/04 00:52:21;;;;;;;;;;;21.40;42.70;;;;;;485298;245;1410;-54
2022/10/04 00:54:22;;;;;;;;;;;21.40;42.70;;;;;;485538;245;1235;-53
2022/10/04 00:56:24;;;;;;;;;;;21.30;42.70;;;;;;485765;245;1270;-53
2022/10/04 00:58:25;;;;;;;;;;;21.30;42.80;;;;;;485325;246;1253;-54
2022/10/04 01:00:26;;;;;;;;;;;21.30;42.80;;;;;;485428;245;1101;-53
2022/10/04 01:02:27;;;;;;;;;;;21.30;42.80;;;;;;485338;245;1230;-53
2022/10/04 01:04:30;;;;;;;;;;;21.40;42.80;;;;;;485220;245;1223;-53
2022/10/04 01:06:30;;;;;;;;;;;21.40;42.80;;;;;;485418;246;2144;-53
2022/10/04 01:08:31;;;;;;;;;;;21.30;42.90;;;;;;485395;245;2167;-53
2022/10/04 01:10:33;;;;;;;;;;;21.30;43.10;;;;;;485767;245;1220;-54
2022/10/04 01:12:34;;;;;;;;;;;21.30;43.20;;;;;;485307;245;1158;-54
2022/10/04 01:14:35;;;;;;;;;;;21.30;43.30;;;;;;485274;245;1266;-54
2022/10/04 01:16:37;;;;;;;;;;;21.30;43.40;;;;;;485292;245;1359;-53
2022/10/04 01:18:38;;;;;;;;;;;21.20;43.50;;;;;;485704;245;1183;-54
2022/10/04 01:20:39;;;;;;;;;;;21.20;43.60;;;;;;485302;245;1288;-53
2022/10/04 01:22:41;;;;;;;;;;;21.20;43.60;;;;;;485399;245;1275;-54
2022/10/04 01:24:42;;;;;;;;;;;21.20;43.80;;;;;;485344;245;1449;-53
2022/10/04 01:26:43;;;;;;;;;;;21.20;43.80;;;;;;485265;245;1328;-52
2022/10/04 01:28:45;;;;;;;;;;;21.20;43.90;;;;;;485488;245;2148;-53
2022/10/04 01:30:46;;;;;;;;;;;21.20;43.90;;;;;;485539;245;1395;-53
2022/10/04 01:32:47;;;;;;;;;;;21.20;43.90;;;;;;485597;245;1181;-53
2022/10/04 01:34:49;;;;;;;;;;;21.20;43.90;;;;;;485265;245;1283;-53
2022/10/04 01:36:51;;;;;;;;;;;21.20;44.00;;;;;;485709;245;1341;-53
2022/10/04 01:38:51;;;;;;;;;;;21.20;44.00;;;;;;485668;245;1397;-54
2022/10/04 01:40:53;;;;;;;;;;;21.20;44.00;;;;;;485377;245;1291;-53
2022/10/04 01:42:54;;;;;;;;;;;21.20;44.00;;;;;;485357;245;1286;-52
2022/10/04 01:44:55;;;;;;;;;;;21.20;44.10;;;;;;485698;245;1349;-54
2022/10/04 01:46:57;;;;;;;;;;;21.20;44.10;;;;;;485716;245;1325;-53
2022/10/04 01:48:58;;;;;;;;;;;21.20;44.10;;;;;;485641;245;2198;-53
2022/10/04 01:50:59;;;;;;;;;;;21.20;44.10;;;;;;485310;245;1303;-54
2022/10/04 01:53:01;;;;;;;;;;;21.20;44.10;;;;;;485702;245;1605;-53
2022/10/04 01:55:02;;;;;;;;;;;21.20;44.10;;;;;;485724;245;1416;-53
2022/10/04 01:57:03;;;;;;;;;;;21.20;44.20;;;;;;485739;245;1227;-54
2022/10/04 01:59:05;;;;;;;;;;;21.20;44.20;;;;;;485676;245;1315;-54
2022/10/04 02:01:06;;;;;;;;;;;21.20;44.20;;;;;;485392;245;1190;-53
2022/10/04 02:03:07;;;;;;;;;;;21.20;44.20;;;;;;485061;245;1254;-54
2022/10/04 02:05:09;;;;;;;;;;;21.20;44.20;;;;;;485535;245;1244;-53
2022/10/04 02:07:10;;;;;;;;;;;21.20;44.30;;;;;;485264;245;1309;-53
2022/10/04 02:09:11;;;;;;;;;;;21.20;44.30;;;;;;485748;245;2202;-53
2022/10/04 02:11:13;;;;;;;;;;;21.10;44.30;;;;;;485750;245;1234;-53
2022/10/04 02:13:16;;;;;;;;;;;21.20;44.30;;;;;;485738;245;1260;-54
2022/10/04 02:15:16;;;;;;;;;;;21.10;44.30;;;;;;485123;246;2423;-53
2022/10/04 02:17:17;;;;;;;;;;;21.20;44.30;;;;;;485628;245;1363;-54
2022/10/04 02:19:18;;;;;;;;;;;21.20;44.40;;;;;;485539;245;1256;-54
2022/10/04 02:21:20;;;;;;;;;;;21.20;44.40;;;;;;485354;245;1250;-54
2022/10/04 02:23:21;;;;;;;;;;;21.20;44.40;;;;;;485746;245;1262;-53
2022/10/04 02:25:22;;;;;;;;;;;21.20;44.40;;;;;;485270;245;1251;-54
2022/10/04 02:27:24;;;;;;;;;;;21.20;44.40;;;;;;485708;245;1239;-54
2022/10/04 02:29:25;;;;;;;;;;;21.20;44.40;;;;;;485264;245;2176;-53
2022/10/04 02:33:45;;;;;;;;;;;21.20;44.50;;;;;;485154;246;1253;-54
2022/10/04 02:35:47;;;;;;;;;;;21.20;44.50;;;;;;485516;245;1346;-54
2022/10/04 02:37:48;;;;;;;;;;;21.20;44.50;;;;;;485744;245;1230;-53
2022/10/04 02:39:49;;;;;;;;;;;21.20;44.50;;;;;;485295;245;1268;-53
2022/10/04 02:41:51;;;;;;;;;;;21.20;44.50;;;;;;485282;245;1240;-54
2022/10/04 02:43:52;;;;;;;;;;;21.20;44.50;;;;;;485672;245;2142;-53
2022/10/04 02:45:54;;;;;;;;;;;21.10;44.50;;;;;;485725;245;1207;-53
2022/10/04 02:47:55;;;;;;;;;;;21.10;44.50;;;;;;485453;245;1207;-53
2022/10/04 02:49:56;;;;;;;;;;;21.10;44.60;;;;;;485308;245;2163;-54
2022/10/04 02:51:57;;;;;;;;;;;21.10;44.60;;;;;;485299;245;1274;-53
2022/10/04 02:53:59;;;;;;;;;;;21.10;44.60;;;;;;485282;245;1175;-54
2022/10/04 02:56:00;;;;;;;;;;;21.10;44.60;;;;;;485359;245;1235;-53
2022/10/04 02:58:01;;;;;;;;;;;21.10;44.60;;;;;;485458;245;1187;-53
2022/10/04 03:00:03;;;;;;;;;;;21.10;44.60;;;;;;485494;245;1303;-53
2022/10/04 03:02:04;;;;;;;;;;;21.10;44.70;;;;;;485738;245;1354;-53
2022/10/04 03:04:05;;;;;;;;;;;21.10;44.60;;;;;;485146;245;1192;-53
2022/10/04 03:06:07;;;;;;;;;;;21.20;44.70;;;;;;485297;245;1188;-53
2022/10/04 03:08:09;;;;;;;;;;;21.10;44.60;;;;;;485784;245;1293;-54
2022/10/04 03:10:10;;;;;;;;;;;21.10;44.60;;;;;;485293;245;2172;-53
2022/10/04 03:12:11;;;;;;;;;;;21.10;44.70;;;;;;485819;245;1207;-53
2022/10/04 03:14:13;;;;;;;;;;;21.10;44.70;;;;;;485465;245;1229;-53
2022/10/04 03:16:14;;;;;;;;;;;21.10;44.70;;;;;;485387;245;1114;-53
2022/10/04 03:18:16;;;;;;;;;;;21.20;44.70;;;;;;485791;245;1193;-53
2022/10/04 03:20:20;;;;;;;;;;;21.10;44.70;;;;;;485791;245;1167;-53
2022/10/04 03:22:19;;;;;;;;;;;21.10;44.70;;;;;;485161;246;2537;-53
2022/10/04 03:24:20;;;;;;;;;;;21.20;44.80;;;;;;485636;245;1143;-53
2022/10/04 03:26:21;;;;;;;;;;;21.10;44.70;;;;;;485561;245;1327;-54
2022/10/04 03:28:22;;;;;;;;;;;21.10;44.70;;;;;;485357;245;1410;-54
2022/10/04 03:30:24;;;;;;;;;;;21.20;44.80;;;;;;485755;245;2214;-54
2022/10/04 03:32:25;;;;;;;;;;;21.10;44.80;;;;;;485512;245;1210;-53
2022/10/04 03:34:26;;;;;;;;;;;21.10;44.80;;;;;;485493;245;2194;-52
2022/10/04 03:36:28;;;;;;;;;;;21.10;44.80;;;;;;485320;245;1262;-53
2022/10/04 03:38:29;;;;;;;;;;;21.10;44.90;;;;;;485771;245;1266;-53
2022/10/04 03:40:30;;;;;;;;;;;21.10;44.80;;;;;;485783;245;1245;-53
2022/10/04 03:42:33;;;;;;;;;;;21.10;44.90;;;;;;485801;245;1311;-53
2022/10/04 03:44:33;;;;;;;;;;;21.10;44.80;;;;;;485421;245;2253;-53
2022/10/04 03:46:34;;;;;;;;;;;21.10;44.80;;;;;;485359;245;1293;-53
2022/10/04 03:48:35;;;;;;;;;;;21.10;44.80;;;;;;485337;245;1197;-54
2022/10/04 03:50:37;;;;;;;;;;;21.10;44.80;;;;;;485778;245;2152;-53
2022/10/04 03:52:38;;;;;;;;;;;21.10;44.80;;;;;;485361;245;1460;-54
2022/10/04 03:54:39;;;;;;;;;;;21.10;44.80;;;;;;485773;245;1206;-52
2022/10/04 03:56:41;;;;;;;;;;;21.10;44.80;;;;;;485431;245;1262;-53
2022/10/04 03:58:42;;;;;;;;;;;21.10;44.90;;;;;;485781;245;1207;-53
2022/10/04 04:00:43;;;;;;;;;;;21.10;44.90;;;;;;485405;245;1279;-54
2022/10/04 04:02:45;;;;;;;;;;;21.10;44.90;;;;;;485577;245;1126;-53
2022/10/04 04:04:47;;;;;;;;;;;21.10;44.90;;;;;;485272;245;1215;-54
2022/10/04 04:06:48;;;;;;;;;;;21.10;44.90;;;;;;485584;245;1218;-54
2022/10/04 04:08:49;;;;;;;;;;;21.20;44.90;;;;;;485767;245;1279;-53
2022/10/04 04:10:50;;;;;;;;;;;21.10;44.90;;;;;;485760;245;2190;-54
2022/10/04 04:12:51;;;;;;;;;;;21.10;44.90;;;;;;485761;245;1181;-52
2022/10/04 04:14:53;;;;;;;;;;;21.10;44.90;;;;;;485467;245;1151;-53
2022/10/04 04:16:54;;;;;;;;;;;21.10;45.00;;;;;;485544;245;1238;-53
2022/10/04 04:18:55;;;;;;;;;;;21.10;44.90;;;;;;485605;245;1250;-53
2022/10/04 04:20:57;;;;;;;;;;;21.10;44.90;;;;;;485402;245;1459;-53
2022/10/04 04:22:58;;;;;;;;;;;21.10;44.90;;;;;;485241;245;1920;-52
2022/10/04 04:25:00;;;;;;;;;;;21.10;44.90;;;;;;485478;245;1388;-53
2022/10/04 04:27:04;;;;;;;;;;;21.10;44.90;;;;;;485432;245;1246;-53
2022/10/04 04:29:02;;;;;;;;;;;21.10;44.90;;;;;;485508;245;1932;-53
2022/10/04 04:31:04;;;;;;;;;;;21.10;45.00;;;;;;485660;245;2108;-53
2022/10/04 04:33:05;;;;;;;;;;;21.10;45.00;;;;;;485147;245;1189;-53
2022/10/04 04:35:07;;;;;;;;;;;21.10;45.00;;;;;;485588;245;1172;-53
2022/10/04 04:37:08;;;;;;;;;;;21.10;45.00;;;;;;485558;245;1312;-54
2022/10/04 04:41:29;;;;;;;;;;;21.10;45.00;;;;;;485274;246;1187;-53
2022/10/04 04:43:30;;;;;;;;;;;21.10;45.00;;;;;;485719;245;1207;-53
2022/10/04 04:45:31;;;;;;;;;;;21.10;45.00;;;;;;485414;245;1275;-54
2022/10/04 04:47:33;;;;;;;;;;;21.10;45.00;;;;;;485742;245;1167;-53
2022/10/04 04:49:34;;;;;;;;;;;21.10;45.00;;;;;;485746;245;2156;-52
2022/10/04 04:51:36;;;;;;;;;;;21.10;45.10;;;;;;485372;245;1433;-53
2022/10/04 04:53:38;;;;;;;;;;;21.10;45.10;;;;;;485298;245;1248;-53
2022/10/04 04:55:38;;;;;;;;;;;21.10;45.10;;;;;;485593;246;1503;-53
2022/10/04 04:57:40;;;;;;;;;;;21.10;45.10;;;;;;485173;245;1180;-53
2022/10/04 04:59:41;;;;;;;;;;;21.10;45.10;;;;;;485690;245;1184;-53
2022/10/04 05:01:42;;;;;;;;;;;21.10;45.10;;;;;;485254;245;1276;-54
2022/10/04 05:03:44;;;;;;;;;;;21.10;45.10;;;;;;485017;245;1541;-53
2022/10/04 05:05:45;;;;;;;;;;;21.10;45.00;;;;;;485373;245;1257;-53
2022/10/04 05:07:46;;;;;;;;;;;21.10;45.00;;;;;;485513;245;1247;-54
2022/10/04 05:09:48;;;;;;;;;;;21.10;45.00;;;;;;485712;245;2203;-54
2022/10/04 05:11:50;;;;;;;;;;;21.10;45.10;;;;;;485265;245;1408;-53
2022/10/04 05:13:50;;;;;;;;;;;21.10;45.10;;;;;;485203;245;1420;-53
2022/10/04 05:15:51;;;;;;;;;;;21.10;45.00;;;;;;485168;245;1291;-54
2022/10/04 05:17:53;;;;;;;;;;;21.10;45.10;;;;;;485174;245;1208;-53
2022/10/04 05:19:55;;;;;;;;;;;21.10;45.10;;;;;;485165;245;1132;-54
2022/10/04 05:21:56;;;;;;;;;;;21.10;45.00;;;;;;485593;245;1167;-53
2022/10/04 05:23:57;;;;;;;;;;;21.10;45.00;;;;;;485323;245;1170;-53
2022/10/04 05:26:01;;;;;;;;;;;21.10;45.10;;;;;;485369;245;1146;-54
2022/10/04 05:28:01;;;;;;;;;;;21.10;45.10;;;;;;485439;245;2403;-53
2022/10/04 05:30:02;;;;;;;;;;;21.10;45.10;;;;;;485394;245;2168;-53
2022/10/04 05:32:03;;;;;;;;;;;21.10;45.00;;;;;;485538;245;1206;-53
2022/10/04 05:34:05;;;;;;;;;;;21.10;45.00;;;;;;485388;245;1078;-53
2022/10/04 05:36:08;;;;;;;;;;;21.10;45.00;;;;;;485727;245;1056;-53
2022/10/04 05:38:08;;;;;;;;;;;21.10;45.10;;;;;;485059;246;2119;-53
2022/10/04 05:40:09;;;;;;;;;;;21.10;45.10;;;;;;485244;245;1501;-53
2022/10/04 05:42:11;;;;;;;;;;;21.10;45.10;;;;;;485242;245;1235;-53
2022/10/04 05:44:12;;;;;;;;;;;21.10;45.10;;;;;;485602;245;1998;-53
2022/10/04 05:46:13;;;;;;;;;;;21.10;45.10;;;;;;485234;245;1210;-53
2022/10/04 05:48:14;;;;;;;;;;;21.10;45.10;;;;;;485178;245;1248;-53
2022/10/04 05:50:15;;;;;;;;;;;21.10;45.10;;;;;;485354;245;2183;-53
2022/10/04 05:52:17;;;;;;;;;;;21.10;45.10;;;;;;485094;245;1193;-53
2022/10/04 05:54:18;;;;;;;;;;;21.10;45.20;;;;;;485249;245;1311;-53
2022/10/04 05:56:19;;;;;;;;;;;21.10;45.20;;;;;;485269;245;1594;-53
2022/10/04 05:58:21;;;;;;;;;;;21.10;45.20;;;;;;485466;245;1211;-53
2022/10/04 06:00:22;;;;;;;;;;;21.10;45.20;;;;;;485134;245;1213;-54
2022/10/04 06:02:24;;;;;;;;;;;21.10;45.20;;;;;;485032;245;1175;-54
2022/10/04 06:04:25;;;;;;;;;;;21.10;45.20;;;;;;485078;245;1234;-53
2022/10/04 06:06:26;;;;;;;;;;;21.10;45.20;;;;;;485284;245;1287;-53
2022/10/04 06:08:27;;;;;;;;;;;21.10;45.20;;;;;;485001;245;1189;-53
2022/10/04 06:10:29;;;;;;;;;;;21.10;45.20;;;;;;485107;245;2156;-54
2022/10/04 06:12:32;;;;;;;;;;;21.10;45.20;;;;;;485198;245;1275;-53
2022/10/04 06:14:31;;;;;;;;;;;21.10;45.20;;;;;;485082;246;2048;-53
2022/10/04 06:16:33;;;;;;;;;;;21.10;45.20;;;;;;485081;245;1270;-53
2022/10/04 06:18:34;;;;;;;;;;;21.10;45.10;;;;;;485198;245;1579;-54
2022/10/04 06:20:36;;;;;;;;;;;21.10;45.10;;;;;;485401;245;1219;-53
2022/10/04 06:22:37;;;;;;;;;;;21.10;45.10;;;;;;485009;245;1256;-53
2022/10/04 06:24:38;;;;;;;;;;;21.10;45.10;;;;;;484605;245;1290;-54
2022/10/04 06:26:40;;;;;;;;;;;21.10;45.00;;;;;;485146;245;1221;-54
2022/10/04 06:28:41;;;;;;;;;;;21.10;45.10;;;;;;485125;245;1218;-54
2022/10/04 06:30:43;;;;;;;;;;;21.10;45.00;;;;;;485285;245;2187;-54
2022/10/04 06:32:44;;;;;;;;;;;21.10;45.00;;;;;;484985;245;2224;-53
2022/10/04 06:34:45;;;;;;;;;;;21.20;45.00;;;;;;485017;245;1263;-53
2022/10/04 06:36:46;;;;;;;;;;;21.10;45.00;;;;;;485072;245;1305;-52
2022/10/04 06:38:48;;;;;;;;;;;21.10;45.00;;;;;;485415;245;1287;-53
2022/10/04 06:40:49;;;;;;;;;;;21.10;45.00;;;;;;485078;245;1267;-54
2022/10/04 06:42:50;;;;;;;;;;;21.10;45.00;;;;;;484916;245;1309;-53
2022/10/04 06:44:52;;;;;;;;;;;21.10;45.00;;;;;;485237;245;1301;-53
2022/10/04 06:46:53;;;;;;;;;;;21.20;45.10;;;;;;485012;245;1253;-53
2022/10/04 06:48:55;;;;;;;;;;;21.10;45.10;;;;;;485188;245;1342;-53
2022/10/04 06:50:56;;;;;;;;;;;21.10;45.10;;;;;;485347;245;2160;-53
2022/10/04 06:52:57;;;;;;;;;;;21.20;45.10;;;;;;485125;245;1279;-52
2022/10/04 06:54:58;;;;;;;;;;;21.20;45.00;;;;;;485100;245;1146;-53
2022/10/04 06:57:00;;;;;;;;;;;21.10;45.00;;;;;;485001;245;1202;-53
2022/10/04 06:59:02;;;;;;;;;;;21.10;45.10;;;;;;485405;245;1178;-54
2022/10/04 07:01:03;;;;;;;;;;;21.10;45.00;;;;;;485124;245;1115;-52
2022/10/04 07:03:05;;;;;;;;;;;21.10;45.00;;;;;;484657;245;1202;-53
2022/10/04 07:05:06;;;;;;;;;;;21.20;45.00;;;;;;485532;245;1196;-54
2022/10/04 07:07:23;;;;;;;;;;;21.20;45.10;;;;;;484952;245;1241;-53
2022/10/04 07:09:25;;;;;;;;;;;21.20;45.00;;;;;;484973;245;1274;-53
2022/10/04 07:11:26;;;;;;;;;;;21.10;45.00;;;;;;485266;245;2195;-53
2022/10/04 07:13:27;;;;;;;;;;;21.20;45.10;;;;;;485319;245;1174;-54
2022/10/04 07:15:29;;;;;;;;;;;21.10;45.10;;;;;;484935;245;1288;-53
2022/10/04 07:17:30;;;;;;;;;;;21.10;45.10;;;;;;485034;245;1649;-54
2022/10/04 07:19:32;;;;;;;;;;;21.10;45.10;;;;;;485067;245;1234;-53
2022/10/04 07:21:33;;;;;;;;;;;21.10;45.10;;;;;;484990;245;1559;-54
2022/10/04 07:23:34;;;;;;;;;;;21.10;45.10;;;;;;485159;245;1200;-53
2022/10/04 07:25:35;;;;;;;;;;;21.10;45.20;;;;;;485085;245;1291;-54
2022/10/04 07:27:37;;;;;;;;;;;21.10;45.10;;;;;;485438;245;1263;-54
2022/10/04 07:29:40;;;;;;;;;;;21.10;45.20;;;;;;485211;243;1190;-53
2022/10/04 07:31:39;;;;;;;;;;;21.10;45.20;;;;;;484851;245;2237;-54
2022/10/04 07:33:41;;;;;;;;;;;21.20;45.10;;;;;;484894;245;1211;-53
2022/10/04 07:35:42;;;;;;;;;;;21.10;45.10;;;;;;484893;245;1349;-52
2022/10/04 07:37:43;;;;;;;;;;;21.20;45.10;;;;;;485317;245;1619;-53
2022/10/04 07:39:45;;;;;;;;;;;21.20;45.10;;;;;;485027;245;1289;-54
2022/10/04 07:41:46;;;;;;;;;;;21.20;45.10;;;;;;484818;245;1165;-54
2022/10/04 07:43:47;;;;;;;;;;;21.20;45.20;;;;;;484803;245;1260;-53
2022/10/04 07:45:50;;;;;;;;;;;21.20;45.20;;;;;;484869;245;1409;-53
2022/10/04 07:47:50;;;;;;;;;;;21.20;45.20;;;;;;484888;246;1921;-53
2022/10/04 07:49:52;;;;;;;;;;;21.20;45.20;;;;;;484870;245;1357;-52
2022/10/04 07:51:53;;;;;;;;;;;21.20;45.20;;;;;;484775;246;2269;-52
2022/10/04 07:53:54;;;;;;;;;;;21.20;45.20;;;;;;484895;245;1245;-53
2022/10/04 07:55:55;;;;;;;;;;;21.20;45.20;;;;;;484850;245;1535;-53
2022/10/04 07:57:57;;;;;;;;;;;21.20;45.20;;;;;;484875;245;1365;-53
2022/10/04 07:59:58;;;;;;;;;;;21.20;45.20;;;;;;484864;245;1343;-53
2022/10/04 08:02:00;;;;;;;;;;;21.20;45.20;;;;;;484789;245;1227;-52
2022/10/04 08:04:01;;;;;;;;;;;21.20;45.20;;;;;;484866;245;1249;-52
2022/10/04 08:06:02;;;;;;;;;;;21.20;45.20;;;;;;485177;245;1204;-53
2022/10/04 08:08:03;;;;;;;;;;;21.20;45.20;;;;;;484970;245;1181;-53
2022/10/04 08:10:05;;;;;;;;;;;21.20;45.20;;;;;;485084;245;1233;-53
2022/10/04 08:12:06;;;;;;;;;;;21.20;45.20;;;;;;485118;245;2156;-53
2022/10/04 08:14:07;;;;;;;;;;;21.20;45.20;;;;;;485459;245;1221;-53
2022/10/04 08:16:09;;;;;;;;;;;21.20;45.20;;;;;;485331;245;1212;-53
2022/10/04 08:18:10;;;;;;;;;;;21.20;45.30;;;;;;485030;245;1200;-52
2022/10/04 08:20:11;;;;;;;;;;;21.20;45.30;;;;;;485279;245;1123;-53
2022/10/04 08:22:13;;;;;;;;;;;21.20;45.30;;;;;;484881;245;1239;-53
2022/10/04 08:24:15;;;;;;;;;;;21.20;45.30;;;;;;485355;245;1297;-53
2022/10/04 08:26:15;;;;;;;;;;;21.20;45.30;;;;;;485083;245;2325;-53
2022/10/04 08:30:36;;;;;;;;;;;21.20;45.30;;;;;;485064;246;2160;-53
2022/10/04 08:32:37;;;;;;;;;;;21.20;45.40;;;;;;484968;245;1204;-53
2022/10/04 08:34:43;;;;;;;;;;;21.20;45.40;;;;;;484897;245;1276;-54
2022/10/04 08:36:41;;;;;;;;;;;21.20;45.40;;;;;;484589;246;2017;-54
2022/10/04 08:38:43;;;;;;;;;;;21.20;45.30;;;;;;484791;245;1172;-53
2022/10/04 08:40:43;;;;;;;;;;;21.20;45.40;;;;;;484363;245;1376;-53
2022/10/04 08:42:45;;;;;;;;;;;21.20;45.40;;;;;;484871;245;1203;-53
2022/10/04 08:44:46;;;;;;;;;;;21.20;45.40;;;;;;484916;245;1361;-53
2022/10/04 08:46:47;;;;;;;;;;;21.30;45.40;;;;;;484826;245;1621;-54
2022/10/04 08:48:49;;;;;;;;;;;21.20;45.40;;;;;;484700;245;1187;-53
2022/10/04 08:50:50;;;;;;;;;;;21.20;45.40;;;;;;484811;245;2219;-53
2022/10/04 08:52:51;;;;;;;;;;;21.20;45.40;;;;;;484943;245;1271;-54
2022/10/04 08:54:55;;;;;;;;;;;21.20;45.50;;;;;;484874;245;1341;-53
2022/10/04 08:56:55;;;;;;;;;;;21.20;45.50;;;;;;484454;246;2186;-53
2022/10/04 08:58:55;;;;;;;;;;;21.20;45.50;;;;;;484775;246;2157;-53
2022/10/04 09:00:57;;;;;;;;;;;21.20;45.50;;;;;;484806;245;1279;-53
2022/10/04 09:02:58;;;;;;;;;;;21.20;45.50;;;;;;484640;245;1222;-52
2022/10/04 09:04:59;;;;;;;;;;;21.30;45.60;;;;;;484844;245;1261;-53
2022/10/04 09:07:01;;;;;;;;;;;21.20;45.50;;;;;;484583;245;1224;-53
2022/10/04 09:09:02;;;;;;;;;;;21.20;45.50;;;;;;484986;245;1256;-53
2022/10/04 09:11:04;;;;;;;;;;;21.20;45.50;;;;;;484830;245;2171;-53
2022/10/04 09:13:05;;;;;;;;;;;21.20;45.50;;;;;;484768;245;1244;-53
2022/10/04 09:15:06;;;;;;;;;;;21.30;45.60;;;;;;484738;245;1216;-54
2022/10/04 09:17:08;;;;;;;;;;;21.20;45.60;;;;;;484742;245;1373;-54
2022/10/04 09:19:09;;;;;;;;;;;21.20;45.60;;;;;;484979;245;1267;-54
2022/10/04 09:21:12;;;;;;;;;;;21.30;45.70;;;;;;485152;245;1176;-54
2022/10/04 09:23:12;;;;;;;;;;;21.30;45.60;;;;;;484999;242;1656;-53
2022/10/04 09:25:13;;;;;;;;;;;21.30;45.60;;;;;;484936;245;1235;-53
2022/10/04 09:27:15;;;;;;;;;;;21.30;45.70;;;;;;484945;245;1391;-54
2022/10/04 09:29:16;;;;;;;;;;;21.30;45.70;;;;;;484904;245;1261;-53
2022/10/04 09:31:17;;;;;;;;;;;21.30;45.70;;;;;;484919;245;2186;-54
2022/10/04 09:33:19;;;;;;;;;;;21.30;45.70;;;;;;484828;245;1166;-54
2022/10/04 09:35:20;;;;;;;;;;;21.20;45.60;;;;;;485126;245;1202;-53
2022/10/04 09:37:21;;;;;;;;;;;21.30;45.70;;;;;;484939;245;1197;-53
2022/10/04 09:39:23;;;;;;;;;;;21.30;45.70;;;;;;484952;245;1186;-53
2022/10/04 09:41:25;;;;;;;;;;;21.20;45.60;;;;;;485076;245;1064;-53
2022/10/04 09:43:25;;;;;;;;;;;21.20;45.70;;;;;;485104;246;1220;-53
2022/10/04 09:45:27;;;;;;;;;;;21.30;45.70;;;;;;485045;245;1169;-53
2022/10/04 09:47:30;;;;;;;;;;;21.20;45.70;;;;;;485078;245;1229;-53
2022/10/04 09:49:34;;;;;;;;;;;21.30;45.70;;;;;;485184;245;2401;-54
2022/10/04 09:51:32;;;;;;;;;;;21.20;45.70;;;;;;484737;246;2207;-53
2022/10/04 09:53:33;;;;;;;;;;;21.20;45.70;;;;;;484907;245;1227;-53
2022/10/04 09:55:35;;;;;;;;;;;21.20;45.80;;;;;;484958;245;1376;-54
2022/10/04 09:57:38;;;;;;;;;;;21.20;45.80;;;;;;484916;245;1235;-53
2022/10/04 09:59:37;;;;;;;;;;;21.30;45.80;;;;;;484879;246;1877;-53
2022/10/04 10:01:39;;;;;;;;;;;21.30;45.80;;;;;;484915;245;1377;-53
2022/10/04 10:03:41;;;;;;;;;;;21.20;45.70;;;;;;484930;245;1240;-54
2022/10/04 10:05:42;;;;;;;;;;;21.30;45.80;;;;;;484912;245;1355;-53
2022/10/04 10:07:43;;;;;;;;;;;21.30;45.80;;;;;;485078;245;1240;-53
2022/10/04 10:14:25;;;;;;;;;;;21.20;45.80;;;;;;484847;246;1303;-53
2022/10/04 10:16:25;;;;;;;;;;;21.30;45.90;;;;;;484701;245;2165;-54
2022/10/04 10:18:26;;;;;;;;;;;21.20;45.80;;;;;;484921;245;1298;-53
2022/10/04 10:20:27;;;;;;;;;;;21.20;45.90;;;;;;484987;245;1236;-53
2022/10/04 10:22:30;;;;;;;;;;;21.30;45.90;;;;;;485140;245;1201;-53
2022/10/04 10:24:30;;;;;;;;;;;21.30;45.90;;;;;;484765;246;1838;-53
2022/10/04 10:26:31;;;;;;;;;;;21.20;45.90;;;;;;485064;245;1249;-53
2022/10/04 10:28:33;;;;;;;;;;;21.30;45.90;;;;;;484967;245;1231;-53
2022/10/04 10:30:34;;;;;;;;;;;21.30;45.90;;;;;;484939;245;1229;-54
2022/10/04 10:32:35;;;;;;;;;;;21.30;45.90;;;;;;484730;245;2207;-54
2022/10/04 10:34:37;;;;;;;;;;;21.30;45.90;;;;;;484917;245;1264;-53
2022/10/04 10:36:38;;;;;;;;;;;21.30;45.90;;;;;;484898;245;1216;-53
2022/10/04 10:38:39;;;;;;;;;;;21.30;45.90;;;;;;485118;245;1182;-53
2022/10/04 10:40:43;;;;;;;;;;;21.30;45.90;;;;;;484737;245;1331;-54
2022/10/04 10:42:42;;;;;;;;;;;21.30;45.90;;;;;;484603;246;1463;-53
2022/10/04 10:44:45;;;;;;;;;;;21.30;45.90;;;;;;484780;245;1257;-53
2022/10/04 10:46:45;;;;;;;;;;;21.30;45.90;;;;;;484773;246;1303;-53
2022/10/04 10:48:46;;;;;;;;;;;21.30;45.90;;;;;;484938;245;1274;-53
2022/10/04 10:50:58;;;;;;;;;;;21.30;45.90;;;;;;484786;245;1298;-53
2022/10/04 10:52:59;;;;;;;;;;;21.30;45.90;;;;;;484804;245;2160;-53
2022/10/04 10:55:00;;;;;;;;;;;21.30;46.00;;;;;;484969;245;1209;-53
2022/10/04 10:57:01;;;;;;;;;;;21.30;46.00;;;;;;484863;245;1281;-54
2022/10/04 10:59:04;;;;;;;;;;;21.30;46.00;;;;;;485189;245;1097;-52
2022/10/04 11:01:04;;;;;;;;;;;21.30;46.00;;;;;;485185;246;1514;-53
2022/10/04 11:03:05;;;;;;;;;;;21.30;45.90;;;;;;484663;245;1270;-54
2022/10/04 11:05:07;;;;;;;;;;;21.30;46.00;;;;;;485024;245;1395;-54
2022/10/04 11:07:08;;;;;;;;;;;21.30;46.00;;;;;;485046;245;1161;-53
2022/10/04 11:09:09;;;;;;;;;;;21.30;45.90;;;;;;485387;245;1172;-54
2022/10/04 11:11:12;;;;;;;;;;;21.30;46.00;;;;;;484961;245;1043;-54
2022/10/04 11:13:12;;;;;;;;;;;21.30;46.00;;;;;;484931;245;2151;-53
2022/10/04 11:15:15;;;;;;;;;;;21.30;46.00;;;;;;484931;245;1173;-54
2022/10/04 11:17:15;;;;;;;;;;;21.30;46.00;;;;;;485126;245;2242;-53
2022/10/04 11:19:16;;;;;;;;;;;21.30;46.00;;;;;;485068;245;1117;-54
2022/10/04 11:21:25;;;;;;;;;;;21.30;46.00;;;;;;485150;245;1211;-54
2022/10/04 11:23:19;;;;;;;;;;;21.30;46.00;;;;;;484592;246;1343;-53
2022/10/04 11:25:24;;;;;;;;;;;21.30;46.00;;;;;;484963;245;1271;-53
2022/10/04 11:27:27;;;;;;;;;;;21.30;46.00;;;;;;484705;246;2089;-53
2022/10/04 11:29:24;;;;;;;;;;;21.30;46.00;;;;;;484699;246;1386;-54
2022/10/04 11:31:25;;;;;;;;;;;21.30;46.00;;;;;;484947;245;1223;-54
2022/10/04 11:33:27;;;;;;;;;;;21.30;46.00;;;;;;484789;245;2192;-54
2022/10/04 11:35:28;;;;;;;;;;;21.30;46.00;;;;;;484905;245;1326;-53
2022/10/04 11:37:30;;;;;;;;;;;21.30;46.00;;;;;;484982;245;1361;-53
2022/10/04 11:39:30;;;;;;;;;;;21.30;46.10;;;;;;485287;246;2460;-54
2022/10/04 11:41:32;;;;;;;;;;;21.30;46.00;;;;;;485047;245;1216;-53
2022/10/04 11:43:34;;;;;;;;;;;21.30;46.10;;;;;;484868;245;1257;-54
2022/10/04 11:45:37;;;;;;;;;;;21.30;46.10;;;;;;484833;246;2152;-53
2022/10/04 11:47:36;;;;;;;;;;;21.30;46.10;;;;;;484740;246;2471;-53
2022/10/04 11:49:37;;;;;;;;;;;21.30;46.10;;;;;;485155;245;1194;-53
2022/10/04 11:51:39;;;;;;;;;;;21.30;46.10;;;;;;484988;245;1250;-53
2022/10/04 11:53:39;;;;;;;;;;;21.30;46.00;;;;;;484959;245;2224;-53
2022/10/04 11:55:41;;;;;;;;;;;21.30;46.10;;;;;;484818;245;1247;-54
2022/10/04 11:57:42;;;;;;;;;;;21.30;46.20;;;;;;485139;245;1272;-53
2022/10/04 11:59:43;;;;;;;;;;;21.30;46.20;;;;;;484950;245;1261;-53
2022/10/04 12:01:45;;;;;;;;;;;21.30;46.20;;;;;;485022;245;1251;-54
2022/10/04 12:03:46;;;;;;;;;;;21.30;46.20;;;;;;484936;245;1339;-53
2022/10/04 12:05:49;;;;;;;;;;;21.30;46.20;;;;;;484845;245;1197;-53
2022/10/04 12:07:49;;;;;;;;;;;21.30;46.20;;;;;;484756;246;1870;-53
2022/10/04 12:09:51;;;;;;;;;;;21.30;46.20;;;;;;484967;245;1266;-53